sensor_id;sensor_type;location;lat;lon;timestamp;P1;durP1;ratioP1;P2;durP2;ratioP2
78561;SDS011;68963;52.138;5.446;2024-02-23T00:00:35;5.75;;;0.68;;
78561;SDS011;68963;52.138;5.446;2024-02-23T00:03:02;3.90;;;0.60;;
78561;SDS011;68963;52.138;5.446;2024-02-23T00:05:29;4.90;;;0.80;;
78561;SDS011;68963;52.138;5.446;2024-02-23T00:07:55;4.88;;;0.60;;
78561;SDS011;68963;52.138;5.446;2024-02-23T00:10:22;2.55;;;0.50;;
78561;SDS011;68963;52.138;5.446;2024-02-23T00:12:49;5.55;;;0.70;;
78561;SDS011;68963;52.138;5.446;2024-02-23T00:15:15;5.53;;;1.13;;
78561;SDS011;68963;52.138;5.446;2024-02-23T00:17:42;3.53;;;0.75;;
78561;SDS011;68963;52.138;5.446;2024-02-23T00:20:08;4.40;;;0.82;;
78561;SDS011;68963;52.138;5.446;2024-02-23T00:22:40;7.78;;;1.02;;
78561;SDS011;68963;52.138;5.446;2024-02-23T00:25:06;4.85;;;0.88;;
78561;SDS011;68963;52.138;5.446;2024-02-23T00:27:33;6.00;;;0.82;;
78561;SDS011;68963;52.138;5.446;2024-02-23T00:30:00;5.93;;;0.80;;
78561;SDS011;68963;52.138;5.446;2024-02-23T00:32:27;6.43;;;1.10;;
78561;SDS011;68963;52.138;5.446;2024-02-23T00:34:53;6.03;;;0.98;;
78561;SDS011;68963;52.138;5.446;2024-02-23T00:37:20;7.40;;;0.93;;
78561;SDS011;68963;52.138;5.446;2024-02-23T00:39:46;6.90;;;0.80;;
78561;SDS011;68963;52.138;5.446;2024-02-23T00:42:13;6.70;;;1.10;;
78561;SDS011;68963;52.138;5.446;2024-02-23T00:44:40;5.10;;;0.98;;
78561;SDS011;68963;52.138;5.446;2024-02-23T00:47:06;6.32;;;1.00;;
78561;SDS011;68963;52.138;5.446;2024-02-23T00:49:33;6.15;;;1.00;;
78561;SDS011;68963;52.138;5.446;2024-02-23T00:51:59;7.90;;;1.08;;
78561;SDS011;68963;52.138;5.446;2024-02-23T00:54:26;9.98;;;1.10;;
78561;SDS011;68963;52.138;5.446;2024-02-23T00:56:52;6.03;;;1.02;;
78561;SDS011;68963;52.138;5.446;2024-02-23T00:59:22;6.00;;;1.02;;
78561;SDS011;68963;52.138;5.446;2024-02-23T01:01:49;6.28;;;1.30;;
78561;SDS011;68963;52.138;5.446;2024-02-23T01:04:16;5.70;;;1.05;;
78561;SDS011;68963;52.138;5.446;2024-02-23T01:06:42;7.97;;;1.10;;
78561;SDS011;68963;52.138;5.446;2024-02-23T01:09:09;8.65;;;0.85;;
78561;SDS011;68963;52.138;5.446;2024-02-23T01:11:35;6.13;;;1.00;;
78561;SDS011;68963;52.138;5.446;2024-02-23T01:14:02;6.80;;;0.93;;
78561;SDS011;68963;52.138;5.446;2024-02-23T01:16:29;5.30;;;0.90;;
78561;SDS011;68963;52.138;5.446;2024-02-23T01:18:55;3.50;;;0.75;;
78561;SDS011;68963;52.138;5.446;2024-02-23T01:21:22;6.47;;;1.00;;
78561;SDS011;68963;52.138;5.446;2024-02-23T01:23:49;3.42;;;0.60;;
78561;SDS011;68963;52.138;5.446;2024-02-23T01:26:15;1.98;;;0.40;;
78561;SDS011;68963;52.138;5.446;2024-02-23T01:28:42;4.70;;;0.65;;
78561;SDS011;68963;52.138;5.446;2024-02-23T01:31:09;5.07;;;0.80;;
78561;SDS011;68963;52.138;5.446;2024-02-23T01:33:39;4.28;;;0.73;;
78561;SDS011;68963;52.138;5.446;2024-02-23T01:36:06;3.42;;;0.80;;
78561;SDS011;68963;52.138;5.446;2024-02-23T01:38:34;3.47;;;0.80;;
78561;SDS011;68963;52.138;5.446;2024-02-23T01:41:00;5.85;;;0.93;;
78561;SDS011;68963;52.138;5.446;2024-02-23T01:43:28;3.50;;;0.80;;
78561;SDS011;68963;52.138;5.446;2024-02-23T01:45:54;4.53;;;0.98;;
78561;SDS011;68963;52.138;5.446;2024-02-23T01:48:21;5.05;;;0.82;;
78561;SDS011;68963;52.138;5.446;2024-02-23T01:50:48;6.72;;;1.00;;
78561;SDS011;68963;52.138;5.446;2024-02-23T01:53:15;5.70;;;0.90;;
78561;SDS011;68963;52.138;5.446;2024-02-23T01:55:43;3.47;;;0.88;;
78561;SDS011;68963;52.138;5.446;2024-02-23T01:58:12;6.03;;;1.30;;
78561;SDS011;68963;52.138;5.446;2024-02-23T02:00:39;5.95;;;0.95;;
78561;SDS011;68963;52.138;5.446;2024-02-23T02:03:05;6.32;;;0.90;;
78561;SDS011;68963;52.138;5.446;2024-02-23T02:05:37;6.15;;;1.13;;
78561;SDS011;68963;52.138;5.446;2024-02-23T02:08:04;7.10;;;1.02;;
78561;SDS011;68963;52.138;5.446;2024-02-23T02:10:31;4.70;;;1.00;;
78561;SDS011;68963;52.138;5.446;2024-02-23T02:13:02;5.13;;;1.02;;
78561;SDS011;68963;52.138;5.446;2024-02-23T02:15:31;6.50;;;1.20;;
78561;SDS011;68963;52.138;5.446;2024-02-23T02:17:58;5.07;;;1.08;;
78561;SDS011;68963;52.138;5.446;2024-02-23T02:20:25;8.50;;;1.05;;
78561;SDS011;68963;52.138;5.446;2024-02-23T02:22:54;5.28;;;1.20;;
78561;SDS011;68963;52.138;5.446;2024-02-23T02:25:21;7.25;;;1.05;;
78561;SDS011;68963;52.138;5.446;2024-02-23T02:27:47;5.97;;;1.15;;
78561;SDS011;68963;52.138;5.446;2024-02-23T02:30:14;6.93;;;1.02;;
78561;SDS011;68963;52.138;5.446;2024-02-23T02:32:41;8.05;;;1.10;;
78561;SDS011;68963;52.138;5.446;2024-02-23T02:35:09;6.85;;;1.00;;
78561;SDS011;68963;52.138;5.446;2024-02-23T02:37:37;5.75;;;0.80;;
78561;SDS011;68963;52.138;5.446;2024-02-23T02:40:04;5.70;;;0.85;;
78561;SDS011;68963;52.138;5.446;2024-02-23T02:42:32;7.75;;;1.02;;
78561;SDS011;68963;52.138;5.446;2024-02-23T02:44:59;7.43;;;1.15;;
78561;SDS011;68963;52.138;5.446;2024-02-23T02:47:26;7.28;;;1.20;;
78561;SDS011;68963;52.138;5.446;2024-02-23T02:49:53;5.15;;;0.98;;
78561;SDS011;68963;52.138;5.446;2024-02-23T02:52:19;5.40;;;1.02;;
78561;SDS011;68963;52.138;5.446;2024-02-23T02:54:49;6.55;;;1.17;;
78561;SDS011;68963;52.138;5.446;2024-02-23T02:57:16;5.53;;;1.20;;
78561;SDS011;68963;52.138;5.446;2024-02-23T02:59:42;6.25;;;1.10;;
78561;SDS011;68963;52.138;5.446;2024-02-23T03:02:10;5.32;;;1.02;;
78561;SDS011;68963;52.138;5.446;2024-02-23T03:04:37;6.40;;;1.25;;
78561;SDS011;68963;52.138;5.446;2024-02-23T03:07:03;8.85;;;1.50;;
78561;SDS011;68963;52.138;5.446;2024-02-23T03:09:31;7.07;;;1.67;;
78561;SDS011;68963;52.138;5.446;2024-02-23T03:11:57;6.80;;;1.10;;
78561;SDS011;68963;52.138;5.446;2024-02-23T03:14:25;5.90;;;1.10;;
78561;SDS011;68963;52.138;5.446;2024-02-23T03:16:52;4.45;;;1.10;;
78561;SDS011;68963;52.138;5.446;2024-02-23T03:19:18;6.30;;;1.15;;
78561;SDS011;68963;52.138;5.446;2024-02-23T03:21:49;6.57;;;1.50;;
78561;SDS011;68963;52.138;5.446;2024-02-23T03:24:16;4.30;;;0.90;;
78561;SDS011;68963;52.138;5.446;2024-02-23T03:26:42;6.82;;;1.20;;
78561;SDS011;68963;52.138;5.446;2024-02-23T03:29:09;7.15;;;1.35;;
78561;SDS011;68963;52.138;5.446;2024-02-23T03:31:36;5.20;;;1.15;;
78561;SDS011;68963;52.138;5.446;2024-02-23T03:34:03;5.18;;;1.00;;
78561;SDS011;68963;52.138;5.446;2024-02-23T03:36:30;5.93;;;1.00;;
78561;SDS011;68963;52.138;5.446;2024-02-23T03:38:56;5.00;;;1.02;;
78561;SDS011;68963;52.138;5.446;2024-02-23T03:41:23;6.75;;;1.20;;
78561;SDS011;68963;52.138;5.446;2024-02-23T03:43:50;4.45;;;1.20;;
78561;SDS011;68963;52.138;5.446;2024-02-23T03:46:16;6.45;;;0.98;;
78561;SDS011;68963;52.138;5.446;2024-02-23T03:48:44;6.90;;;1.30;;
78561;SDS011;68963;52.138;5.446;2024-02-23T03:51:12;4.03;;;1.10;;
78561;SDS011;68963;52.138;5.446;2024-02-23T03:53:38;5.18;;;1.10;;
78561;SDS011;68963;52.138;5.446;2024-02-23T03:56:05;5.82;;;1.00;;
78561;SDS011;68963;52.138;5.446;2024-02-23T03:58:32;5.97;;;1.10;;
78561;SDS011;68963;52.138;5.446;2024-02-23T04:00:58;6.82;;;1.08;;
78561;SDS011;68963;52.138;5.446;2024-02-23T04:03:25;4.55;;;1.00;;
78561;SDS011;68963;52.138;5.446;2024-02-23T04:05:51;6.03;;;1.30;;
78561;SDS011;68963;52.138;5.446;2024-02-23T04:08:18;8.25;;;1.20;;
78561;SDS011;68963;52.138;5.446;2024-02-23T04:10:44;4.47;;;1.00;;
78561;SDS011;68963;52.138;5.446;2024-02-23T04:13:11;5.95;;;1.30;;
78561;SDS011;68963;52.138;5.446;2024-02-23T04:18:06;6.03;;;1.25;;
78561;SDS011;68963;52.138;5.446;2024-02-23T04:20:33;4.63;;;1.30;;
78561;SDS011;68963;52.138;5.446;2024-02-23T04:23:00;7.45;;;1.10;;
78561;SDS011;68963;52.138;5.446;2024-02-23T04:25:26;5.40;;;1.25;;
78561;SDS011;68963;52.138;5.446;2024-02-23T04:27:53;4.82;;;1.35;;
78561;SDS011;68963;52.138;5.446;2024-02-23T04:30:20;8.68;;;1.52;;
78561;SDS011;68963;52.138;5.446;2024-02-23T04:32:46;6.60;;;1.33;;
78561;SDS011;68963;52.138;5.446;2024-02-23T04:35:13;7.10;;;1.00;;
78561;SDS011;68963;52.138;5.446;2024-02-23T04:37:43;4.10;;;1.20;;
78561;SDS011;68963;52.138;5.446;2024-02-23T04:40:11;4.15;;;1.23;;
78561;SDS011;68963;52.138;5.446;2024-02-23T04:42:38;6.95;;;1.23;;
78561;SDS011;68963;52.138;5.446;2024-02-23T04:45:05;5.22;;;1.23;;
78561;SDS011;68963;52.138;5.446;2024-02-23T04:47:32;4.57;;;1.00;;
78561;SDS011;68963;52.138;5.446;2024-02-23T04:49:59;8.07;;;1.30;;
78561;SDS011;68963;52.138;5.446;2024-02-23T04:52:25;4.85;;;1.27;;
78561;SDS011;68963;52.138;5.446;2024-02-23T04:54:52;6.18;;;1.10;;
78561;SDS011;68963;52.138;5.446;2024-02-23T04:57:18;6.10;;;1.50;;
78561;SDS011;68963;52.138;5.446;2024-02-23T04:59:45;6.45;;;1.42;;
78561;SDS011;68963;52.138;5.446;2024-02-23T05:02:12;5.40;;;1.10;;
78561;SDS011;68963;52.138;5.446;2024-02-23T05:04:39;5.63;;;1.23;;
78561;SDS011;68963;52.138;5.446;2024-02-23T05:07:06;4.82;;;1.13;;
78561;SDS011;68963;52.138;5.446;2024-02-23T05:09:32;7.68;;;1.40;;
78561;SDS011;68963;52.138;5.446;2024-02-23T05:12:01;6.18;;;1.33;;
78561;SDS011;68963;52.138;5.446;2024-02-23T05:14:28;6.88;;;1.20;;
78561;SDS011;68963;52.138;5.446;2024-02-23T05:16:54;6.63;;;1.30;;
78561;SDS011;68963;52.138;5.446;2024-02-23T05:19:21;5.68;;;1.52;;
78561;SDS011;68963;52.138;5.446;2024-02-23T05:21:47;5.55;;;1.40;;
78561;SDS011;68963;52.138;5.446;2024-02-23T05:24:14;7.97;;;1.33;;
78561;SDS011;68963;52.138;5.446;2024-02-23T05:26:43;6.72;;;1.48;;
78561;SDS011;68963;52.138;5.446;2024-02-23T05:29:10;6.80;;;1.40;;
78561;SDS011;68963;52.138;5.446;2024-02-23T05:31:46;6.57;;;1.50;;
78561;SDS011;68963;52.138;5.446;2024-02-23T05:34:14;7.40;;;1.40;;
78561;SDS011;68963;52.138;5.446;2024-02-23T05:36:42;6.05;;;1.55;;
78561;SDS011;68963;52.138;5.446;2024-02-23T05:39:09;6.35;;;1.40;;
78561;SDS011;68963;52.138;5.446;2024-02-23T05:41:36;5.60;;;1.60;;
78561;SDS011;68963;52.138;5.446;2024-02-23T05:44:06;5.10;;;1.55;;
78561;SDS011;68963;52.138;5.446;2024-02-23T05:46:33;5.70;;;1.55;;
78561;SDS011;68963;52.138;5.446;2024-02-23T05:49:01;5.50;;;1.80;;
78561;SDS011;68963;52.138;5.446;2024-02-23T05:51:28;9.15;;;1.80;;
78561;SDS011;68963;52.138;5.446;2024-02-23T05:53:55;5.88;;;1.80;;
78561;SDS011;68963;52.138;5.446;2024-02-23T05:56:22;7.13;;;2.00;;
78561;SDS011;68963;52.138;5.446;2024-02-23T05:58:52;7.82;;;2.00;;
78561;SDS011;68963;52.138;5.446;2024-02-23T06:01:19;10.35;;;1.80;;
78561;SDS011;68963;52.138;5.446;2024-02-23T06:03:46;7.30;;;1.90;;
78561;SDS011;68963;52.138;5.446;2024-02-23T06:06:13;7.20;;;2.00;;
78561;SDS011;68963;52.138;5.446;2024-02-23T06:08:40;6.78;;;1.80;;
78561;SDS011;68963;52.138;5.446;2024-02-23T06:11:09;6.95;;;1.63;;
78561;SDS011;68963;52.138;5.446;2024-02-23T06:13:36;5.30;;;1.50;;
78561;SDS011;68963;52.138;5.446;2024-02-23T06:16:04;5.80;;;1.60;;
78561;SDS011;68963;52.138;5.446;2024-02-23T06:18:31;9.50;;;1.80;;
78561;SDS011;68963;52.138;5.446;2024-02-23T06:20:58;5.28;;;1.50;;
78561;SDS011;68963;52.138;5.446;2024-02-23T06:23:24;5.28;;;1.50;;
78561;SDS011;68963;52.138;5.446;2024-02-23T06:25:51;5.18;;;1.60;;
78561;SDS011;68963;52.138;5.446;2024-02-23T06:28:18;5.38;;;1.35;;
78561;SDS011;68963;52.138;5.446;2024-02-23T06:30:44;6.63;;;1.30;;
78561;SDS011;68963;52.138;5.446;2024-02-23T06:33:11;5.25;;;1.38;;
78561;SDS011;68963;52.138;5.446;2024-02-23T06:35:38;4.50;;;1.38;;
78561;SDS011;68963;52.138;5.446;2024-02-23T06:38:04;6.47;;;1.40;;
78561;SDS011;68963;52.138;5.446;2024-02-23T06:40:32;5.05;;;1.45;;
78561;SDS011;68963;52.138;5.446;2024-02-23T06:43:13;5.38;;;1.13;;
78561;SDS011;68963;52.138;5.446;2024-02-23T06:45:40;4.55;;;1.27;;
78561;SDS011;68963;52.138;5.446;2024-02-23T06:48:07;6.13;;;1.50;;
78561;SDS011;68963;52.138;5.446;2024-02-23T06:50:35;5.68;;;1.20;;
78561;SDS011;68963;52.138;5.446;2024-02-23T06:53:02;4.68;;;1.23;;
78561;SDS011;68963;52.138;5.446;2024-02-23T06:55:28;4.47;;;1.23;;
78561;SDS011;68963;52.138;5.446;2024-02-23T06:57:55;5.80;;;1.17;;
78561;SDS011;68963;52.138;5.446;2024-02-23T07:00:22;6.88;;;1.33;;
78561;SDS011;68963;52.138;5.446;2024-02-23T07:02:48;5.75;;;1.20;;
78561;SDS011;68963;52.138;5.446;2024-02-23T07:05:15;5.80;;;1.38;;
78561;SDS011;68963;52.138;5.446;2024-02-23T07:07:41;5.45;;;1.13;;
78561;SDS011;68963;52.138;5.446;2024-02-23T07:10:08;5.03;;;1.30;;
78561;SDS011;68963;52.138;5.446;2024-02-23T07:12:36;8.55;;;1.60;;
78561;SDS011;68963;52.138;5.446;2024-02-23T07:15:03;4.50;;;1.23;;
78561;SDS011;68963;52.138;5.446;2024-02-23T07:17:30;5.65;;;1.50;;
78561;SDS011;68963;52.138;5.446;2024-02-23T07:19:56;4.60;;;1.63;;
78561;SDS011;68963;52.138;5.446;2024-02-23T07:22:32;7.43;;;1.20;;
78561;SDS011;68963;52.138;5.446;2024-02-23T07:24:59;6.68;;;1.48;;
78561;SDS011;68963;52.138;5.446;2024-02-23T07:27:28;6.45;;;1.30;;
78561;SDS011;68963;52.138;5.446;2024-02-23T07:29:55;6.35;;;1.40;;
78561;SDS011;68963;52.138;5.446;2024-02-23T07:32:21;5.25;;;1.42;;
78561;SDS011;68963;52.138;5.446;2024-02-23T07:34:48;7.22;;;1.55;;
78561;SDS011;68963;52.138;5.446;2024-02-23T07:37:16;4.65;;;1.40;;
78561;SDS011;68963;52.138;5.446;2024-02-23T07:39:42;5.68;;;1.67;;
78561;SDS011;68963;52.138;5.446;2024-02-23T07:42:09;7.22;;;1.33;;
78561;SDS011;68963;52.138;5.446;2024-02-23T07:44:37;8.05;;;1.60;;
78561;SDS011;68963;52.138;5.446;2024-02-23T07:47:04;7.25;;;1.52;;
78561;SDS011;68963;52.138;5.446;2024-02-23T07:49:31;5.80;;;1.60;;
78561;SDS011;68963;52.138;5.446;2024-02-23T07:51:57;5.70;;;1.90;;
78561;SDS011;68963;52.138;5.446;2024-02-23T07:54:24;5.38;;;1.30;;
78561;SDS011;68963;52.138;5.446;2024-02-23T07:56:51;7.68;;;1.55;;
78561;SDS011;68963;52.138;5.446;2024-02-23T07:59:17;7.05;;;1.60;;
78561;SDS011;68963;52.138;5.446;2024-02-23T08:01:46;5.28;;;1.60;;
78561;SDS011;68963;52.138;5.446;2024-02-23T08:04:13;6.43;;;1.33;;
78561;SDS011;68963;52.138;5.446;2024-02-23T08:06:40;6.18;;;1.40;;
78561;SDS011;68963;52.138;5.446;2024-02-23T08:09:07;8.30;;;1.60;;
78561;SDS011;68963;52.138;5.446;2024-02-23T08:11:34;8.00;;;1.40;;
78561;SDS011;68963;52.138;5.446;2024-02-23T08:14:02;6.65;;;1.30;;
78561;SDS011;68963;52.138;5.446;2024-02-23T08:16:29;7.22;;;1.50;;
78561;SDS011;68963;52.138;5.446;2024-02-23T08:18:55;7.13;;;1.63;;
78561;SDS011;68963;52.138;5.446;2024-02-23T08:21:22;6.18;;;1.30;;
78561;SDS011;68963;52.138;5.446;2024-02-23T08:23:49;4.63;;;1.15;;
78561;SDS011;68963;52.138;5.446;2024-02-23T08:26:15;6.18;;;1.10;;
78561;SDS011;68963;52.138;5.446;2024-02-23T08:28:42;6.18;;;1.20;;
78561;SDS011;68963;52.138;5.446;2024-02-23T08:31:08;4.15;;;1.10;;
78561;SDS011;68963;52.138;5.446;2024-02-23T08:33:35;4.80;;;1.20;;
78561;SDS011;68963;52.138;5.446;2024-02-23T08:36:02;6.18;;;1.35;;
78561;SDS011;68963;52.138;5.446;2024-02-23T08:38:32;6.72;;;1.30;;
78561;SDS011;68963;52.138;5.446;2024-02-23T08:40:59;8.82;;;1.30;;
78561;SDS011;68963;52.138;5.446;2024-02-23T08:43:25;6.05;;;1.02;;
78561;SDS011;68963;52.138;5.446;2024-02-23T08:45:52;5.63;;;1.23;;
78561;SDS011;68963;52.138;5.446;2024-02-23T08:48:19;6.53;;;1.20;;
78561;SDS011;68963;52.138;5.446;2024-02-23T08:50:45;6.35;;;1.30;;
78561;SDS011;68963;52.138;5.446;2024-02-23T08:53:12;7.20;;;1.77;;
78561;SDS011;68963;52.138;5.446;2024-02-23T08:55:39;8.23;;;1.30;;
78561;SDS011;68963;52.138;5.446;2024-02-23T08:58:05;5.93;;;1.15;;
78561;SDS011;68963;52.138;5.446;2024-02-23T09:00:32;6.57;;;1.30;;
78561;SDS011;68963;52.138;5.446;2024-02-23T09:02:59;7.93;;;1.20;;
78561;SDS011;68963;52.138;5.446;2024-02-23T09:05:26;7.25;;;1.10;;
78561;SDS011;68963;52.138;5.446;2024-02-23T09:07:53;6.32;;;1.60;;
78561;SDS011;68963;52.138;5.446;2024-02-23T09:10:19;5.95;;;1.10;;
78561;SDS011;68963;52.138;5.446;2024-02-23T09:12:46;7.72;;;1.02;;
78561;SDS011;68963;52.138;5.446;2024-02-23T09:15:13;6.93;;;1.35;;
78561;SDS011;68963;52.138;5.446;2024-02-23T09:17:40;6.57;;;1.10;;
78561;SDS011;68963;52.138;5.446;2024-02-23T09:20:08;5.43;;;1.10;;
78561;SDS011;68963;52.138;5.446;2024-02-23T09:22:35;8.32;;;1.20;;
78561;SDS011;68963;52.138;5.446;2024-02-23T09:25:03;6.10;;;1.15;;
78561;SDS011;68963;52.138;5.446;2024-02-23T09:27:31;5.47;;;0.93;;
78561;SDS011;68963;52.138;5.446;2024-02-23T09:29:58;7.70;;;1.30;;
78561;SDS011;68963;52.138;5.446;2024-02-23T09:32:25;9.30;;;1.25;;
78561;SDS011;68963;52.138;5.446;2024-02-23T09:34:51;5.25;;;1.10;;
78561;SDS011;68963;52.138;5.446;2024-02-23T09:37:18;7.25;;;1.20;;
78561;SDS011;68963;52.138;5.446;2024-02-23T09:39:44;5.95;;;1.10;;
78561;SDS011;68963;52.138;5.446;2024-02-23T09:42:11;5.22;;;1.10;;
78561;SDS011;68963;52.138;5.446;2024-02-23T09:44:38;6.38;;;1.20;;
78561;SDS011;68963;52.138;5.446;2024-02-23T09:47:06;7.32;;;1.02;;
78561;SDS011;68963;52.138;5.446;2024-02-23T09:49:37;7.97;;;1.50;;
78561;SDS011;68963;52.138;5.446;2024-02-23T09:52:07;6.57;;;1.30;;
78561;SDS011;68963;52.138;5.446;2024-02-23T09:54:39;7.30;;;1.33;;
78561;SDS011;68963;52.138;5.446;2024-02-23T09:57:09;4.88;;;1.05;;
78561;SDS011;68963;52.138;5.446;2024-02-23T09:59:36;6.45;;;1.30;;
78561;SDS011;68963;52.138;5.446;2024-02-23T10:02:08;5.85;;;0.98;;
78561;SDS011;68963;52.138;5.446;2024-02-23T10:04:38;6.22;;;1.10;;
78561;SDS011;68963;52.138;5.446;2024-02-23T10:07:06;5.90;;;1.10;;
78561;SDS011;68963;52.138;5.446;2024-02-23T10:09:32;4.22;;;1.17;;
78561;SDS011;68963;52.138;5.446;2024-02-23T10:12:00;6.35;;;1.20;;
78561;SDS011;68963;52.138;5.446;2024-02-23T10:14:30;4.30;;;1.08;;
78561;SDS011;68963;52.138;5.446;2024-02-23T10:16:57;6.28;;;1.13;;
78561;SDS011;68963;52.138;5.446;2024-02-23T10:19:23;8.35;;;1.30;;
78561;SDS011;68963;52.138;5.446;2024-02-23T10:21:55;6.47;;;1.20;;
78561;SDS011;68963;52.138;5.446;2024-02-23T10:24:22;5.00;;;1.20;;
78561;SDS011;68963;52.138;5.446;2024-02-23T10:26:50;4.47;;;1.05;;
78561;SDS011;68963;52.138;5.446;2024-02-23T10:29:17;8.60;;;1.58;;
78561;SDS011;68963;52.138;5.446;2024-02-23T10:31:47;4.63;;;1.15;;
78561;SDS011;68963;52.138;5.446;2024-02-23T10:34:18;4.55;;;0.90;;
78561;SDS011;68963;52.138;5.446;2024-02-23T10:39:17;6.25;;;1.40;;
78561;SDS011;68963;52.138;5.446;2024-02-23T10:41:51;5.32;;;1.17;;
78561;SDS011;68963;52.138;5.446;2024-02-23T10:44:23;4.78;;;1.10;;
78561;SDS011;68963;52.138;5.446;2024-02-23T10:46:50;6.00;;;0.98;;
78561;SDS011;68963;52.138;5.446;2024-02-23T10:49:18;4.35;;;1.38;;
78561;SDS011;68963;52.138;5.446;2024-02-23T10:51:48;6.18;;;1.30;;
78561;SDS011;68963;52.138;5.446;2024-02-23T10:54:18;4.55;;;1.20;;
78561;SDS011;68963;52.138;5.446;2024-02-23T10:56:49;7.82;;;1.40;;
78561;SDS011;68963;52.138;5.446;2024-02-23T10:59:17;6.05;;;1.35;;
78561;SDS011;68963;52.138;5.446;2024-02-23T11:01:48;5.53;;;1.48;;
78561;SDS011;68963;52.138;5.446;2024-02-23T11:04:17;8.27;;;1.40;;
78561;SDS011;68963;52.138;5.446;2024-02-23T11:06:50;5.03;;;1.73;;
78561;SDS011;68963;52.138;5.446;2024-02-23T11:09:20;5.72;;;1.20;;
78561;SDS011;68963;52.138;5.446;2024-02-23T11:11:57;7.03;;;1.50;;
78561;SDS011;68963;52.138;5.446;2024-02-23T11:14:32;4.70;;;1.58;;
78561;SDS011;68963;52.138;5.446;2024-02-23T11:17:01;4.85;;;1.35;;
78561;SDS011;68963;52.138;5.446;2024-02-23T11:19:34;5.20;;;1.63;;
78561;SDS011;68963;52.138;5.446;2024-02-23T11:22:03;6.40;;;1.60;;
78561;SDS011;68963;52.138;5.446;2024-02-23T11:24:33;5.07;;;1.70;;
78561;SDS011;68963;52.138;5.446;2024-02-23T11:26:59;4.38;;;1.42;;
78561;SDS011;68963;52.138;5.446;2024-02-23T11:32:02;5.03;;;1.40;;
78561;SDS011;68963;52.138;5.446;2024-02-23T11:34:30;5.63;;;1.50;;
78561;SDS011;68963;52.138;5.446;2024-02-23T11:36:57;6.38;;;1.95;;
78561;SDS011;68963;52.138;5.446;2024-02-23T11:39:26;5.93;;;1.70;;
78561;SDS011;68963;52.138;5.446;2024-02-23T11:41:53;5.22;;;1.80;;
78561;SDS011;68963;52.138;5.446;2024-02-23T11:44:20;5.40;;;1.60;;
78561;SDS011;68963;52.138;5.446;2024-02-23T11:46:47;7.38;;;1.60;;
78561;SDS011;68963;52.138;5.446;2024-02-23T11:49:14;4.10;;;1.42;;
78561;SDS011;68963;52.138;5.446;2024-02-23T11:51:42;5.57;;;1.77;;
78561;SDS011;68963;52.138;5.446;2024-02-23T11:54:09;5.25;;;1.60;;
78561;SDS011;68963;52.138;5.446;2024-02-23T11:56:35;4.18;;;1.50;;
78561;SDS011;68963;52.138;5.446;2024-02-23T11:59:02;4.97;;;1.52;;
78561;SDS011;68963;52.138;5.446;2024-02-23T12:01:30;5.22;;;1.70;;
78561;SDS011;68963;52.138;5.446;2024-02-23T12:03:57;7.97;;;1.67;;
78561;SDS011;68963;52.138;5.446;2024-02-23T12:06:23;6.72;;;1.90;;
78561;SDS011;68963;52.138;5.446;2024-02-23T12:08:53;6.55;;;1.70;;
78561;SDS011;68963;52.138;5.446;2024-02-23T12:11:20;6.57;;;1.80;;
78561;SDS011;68963;52.138;5.446;2024-02-23T12:13:47;6.88;;;1.73;;
78561;SDS011;68963;52.138;5.446;2024-02-23T12:16:14;5.47;;;1.70;;
78561;SDS011;68963;52.138;5.446;2024-02-23T12:18:40;6.35;;;1.67;;
78561;SDS011;68963;52.138;5.446;2024-02-23T12:21:08;5.53;;;1.52;;
78561;SDS011;68963;52.138;5.446;2024-02-23T12:26:10;5.47;;;1.42;;
78561;SDS011;68963;52.138;5.446;2024-02-23T12:28:40;4.60;;;1.60;;
78561;SDS011;68963;52.138;5.446;2024-02-23T12:31:07;5.18;;;1.42;;
78561;SDS011;68963;52.138;5.446;2024-02-23T12:33:34;5.97;;;1.30;;
78561;SDS011;68963;52.138;5.446;2024-02-23T12:38:29;4.22;;;1.20;;
78561;SDS011;68963;52.138;5.446;2024-02-23T12:40:56;4.85;;;1.42;;
78561;SDS011;68963;52.138;5.446;2024-02-23T12:43:24;7.68;;;1.75;;
78561;SDS011;68963;52.138;5.446;2024-02-23T12:45:51;6.70;;;1.50;;
78561;SDS011;68963;52.138;5.446;2024-02-23T12:48:19;7.53;;;1.48;;
78561;SDS011;68963;52.138;5.446;2024-02-23T12:50:47;6.22;;;1.60;;
78561;SDS011;68963;52.138;5.446;2024-02-23T12:53:30;6.85;;;1.63;;
78561;SDS011;68963;52.138;5.446;2024-02-23T12:56:02;5.35;;;1.50;;
78561;SDS011;68963;52.138;5.446;2024-02-23T12:58:35;5.88;;;1.40;;
78561;SDS011;68963;52.138;5.446;2024-02-23T13:01:03;5.60;;;1.60;;
78561;SDS011;68963;52.138;5.446;2024-02-23T13:03:33;4.88;;;1.35;;
78561;SDS011;68963;52.138;5.446;2024-02-23T13:06:00;6.00;;;1.42;;
78561;SDS011;68963;52.138;5.446;2024-02-23T13:08:29;5.43;;;1.45;;
78561;SDS011;68963;52.138;5.446;2024-02-23T13:10:56;5.82;;;1.20;;
78561;SDS011;68963;52.138;5.446;2024-02-23T13:13:23;4.82;;;1.30;;
78561;SDS011;68963;52.138;5.446;2024-02-23T13:15:51;8.15;;;1.40;;
78561;SDS011;68963;52.138;5.446;2024-02-23T13:18:19;6.72;;;1.20;;
78561;SDS011;68963;52.138;5.446;2024-02-23T13:20:46;4.75;;;1.20;;
78561;SDS011;68963;52.138;5.446;2024-02-23T13:23:13;4.53;;;1.20;;
78561;SDS011;68963;52.138;5.446;2024-02-23T13:25:42;5.32;;;1.23;;
78561;SDS011;68963;52.138;5.446;2024-02-23T13:30:37;4.55;;;1.25;;
78561;SDS011;68963;52.138;5.446;2024-02-23T13:33:05;4.80;;;1.30;;
78561;SDS011;68963;52.138;5.446;2024-02-23T13:35:33;5.53;;;1.30;;
78561;SDS011;68963;52.138;5.446;2024-02-23T13:38:00;4.50;;;1.27;;
78561;SDS011;68963;52.138;5.446;2024-02-23T13:40:29;6.55;;;1.60;;
78561;SDS011;68963;52.138;5.446;2024-02-23T13:42:57;5.57;;;1.45;;
78561;SDS011;68963;52.138;5.446;2024-02-23T13:45:24;4.65;;;1.27;;
78561;SDS011;68963;52.138;5.446;2024-02-23T13:47:58;7.35;;;1.23;;
78561;SDS011;68963;52.138;5.446;2024-02-23T13:50:29;4.80;;;1.35;;
78561;SDS011;68963;52.138;5.446;2024-02-23T13:52:57;4.60;;;1.13;;
78561;SDS011;68963;52.138;5.446;2024-02-23T13:55:24;5.10;;;1.33;;
78561;SDS011;68963;52.138;5.446;2024-02-23T13:57:52;4.00;;;1.17;;
78561;SDS011;68963;52.138;5.446;2024-02-23T14:00:19;7.30;;;1.50;;
78561;SDS011;68963;52.138;5.446;2024-02-23T14:02:46;6.72;;;1.40;;
78561;SDS011;68963;52.138;5.446;2024-02-23T14:05:14;5.43;;;1.40;;
78561;SDS011;68963;52.138;5.446;2024-02-23T14:07:42;5.03;;;1.40;;
78561;SDS011;68963;52.138;5.446;2024-02-23T14:10:09;5.25;;;1.50;;
78561;SDS011;68963;52.138;5.446;2024-02-23T14:12:36;6.75;;;1.30;;
78561;SDS011;68963;52.138;5.446;2024-02-23T14:15:02;5.15;;;1.40;;
78561;SDS011;68963;52.138;5.446;2024-02-23T14:17:31;5.07;;;1.50;;
78561;SDS011;68963;52.138;5.446;2024-02-23T14:19:58;3.50;;;1.58;;
78561;SDS011;68963;52.138;5.446;2024-02-23T14:22:25;3.92;;;1.20;;
78561;SDS011;68963;52.138;5.446;2024-02-23T14:24:54;5.03;;;1.42;;
78561;SDS011;68963;52.138;5.446;2024-02-23T14:27:21;4.53;;;1.20;;
78561;SDS011;68963;52.138;5.446;2024-02-23T14:29:47;5.25;;;1.40;;
78561;SDS011;68963;52.138;5.446;2024-02-23T14:32:15;6.53;;;1.55;;
78561;SDS011;68963;52.138;5.446;2024-02-23T14:34:44;4.75;;;1.25;;
78561;SDS011;68963;52.138;5.446;2024-02-23T14:37:12;5.00;;;1.40;;
78561;SDS011;68963;52.138;5.446;2024-02-23T14:39:39;4.50;;;1.35;;
78561;SDS011;68963;52.138;5.446;2024-02-23T14:42:05;4.00;;;1.20;;
78561;SDS011;68963;52.138;5.446;2024-02-23T14:44:35;4.65;;;1.10;;
78561;SDS011;68963;52.138;5.446;2024-02-23T14:47:03;4.53;;;1.05;;
78561;SDS011;68963;52.138;5.446;2024-02-23T14:49:31;3.25;;;1.10;;
78561;SDS011;68963;52.138;5.446;2024-02-23T14:51:59;3.88;;;1.05;;
78561;SDS011;68963;52.138;5.446;2024-02-23T14:54:26;4.05;;;1.20;;
78561;SDS011;68963;52.138;5.446;2024-02-23T14:56:52;4.93;;;1.10;;
78561;SDS011;68963;52.138;5.446;2024-02-23T14:59:19;3.85;;;1.20;;
78561;SDS011;68963;52.138;5.446;2024-02-23T15:01:46;4.70;;;1.20;;
78561;SDS011;68963;52.138;5.446;2024-02-23T15:04:13;3.90;;;1.25;;